Time;durP1;ratioP1;P1;durP2;ratioP2;P2;SDS_P1;SDS_P2;PMS_P1;PMS_P2;Temp;Humidity;BMP_temperature;BMP_pressure;BME280_temperature;BME280_humidity;BME280_pressure;Samples;Min_cycle;Max_cycle;Signal;HPM_P1;HPM_P2
2021/08/27 00:03:10;;;;;;;6.18;2.00;;;;;;;12.66;71.67;100307.78;8603272;34;20879;-71
2021/08/27 00:08:13;;;;;;;4.65;1.75;;;;;;;12.58;72.07;100303.09;8603246;34;20444;-71
2021/08/27 00:13:16;;;;;;;6.28;2.30;;;;;;;12.44;72.60;100292.72;8603647;34;21012;-71
2021/08/27 00:18:21;;;;;;;5.78;1.48;;;;;;;12.47;72.67;100304.06;8602528;34;20138;-71
2021/08/27 00:23:24;;;;;;;7.22;1.88;;;;;;;12.61;72.49;100308.22;8602925;34;20222;-71
2021/08/27 00:28:27;;;;;;;12.57;2.00;;;;;;;12.64;72.36;100313.31;8602918;34;20276;-71
2021/08/27 00:33:31;;;;;;;7.35;1.83;;;;;;;12.40;72.99;100302.94;8606047;34;20220;-71
2021/08/27 00:38:34;;;;;;;5.95;2.42;;;;;;;12.33;73.46;100309.84;8603801;34;20215;-71
2021/08/27 00:43:37;;;;;;;17.10;1.98;;;;;;;12.27;73.30;100305.00;8578522;34;20163;-71
2021/08/27 00:48:42;;;;;;;7.68;1.90;;;;;;;12.27;73.68;100299.59;8602664;34;20133;-71
2021/08/27 00:53:45;;;;;;;5.57;2.00;;;;;;;12.22;73.90;100291.09;8602059;34;20254;-71
2021/08/27 00:58:48;;;;;;;4.90;2.00;;;;;;;12.22;73.93;100294.63;8601569;34;20209;-71
2021/08/27 01:03:53;;;;;;;6.35;1.80;;;;;;;12.10;74.08;100288.50;8602639;34;20192;-71
2021/08/27 01:09:01;;;;;;;6.68;1.90;;;;;;;11.99;74.53;100302.06;8601505;34;20189;-70
2021/08/27 01:14:07;;;;;;;10.35;1.80;;;;;;;11.51;76.52;100283.84;8601188;34;20185;-70
2021/08/27 01:19:59;;;;;;;4.90;1.88;;;;;;;11.86;75.03;100291.53;8601606;34;20653;-71
2021/08/27 01:25:03;;;;;;;4.22;2.47;;;;;;;11.92;75.05;100296.34;8505371;34;20185;-70
2021/08/27 01:30:13;;;;;;;3.83;2.35;;;;;;;11.98;75.09;100304.88;8601307;34;20189;-71
2021/08/27 01:35:17;;;;;;;5.15;2.78;;;;;;;12.00;75.17;100314.53;8600797;34;20687;-71
2021/08/27 01:40:23;;;;;;;3.80;2.00;;;;;;;11.96;75.25;100310.41;8601082;34;20184;-71
2021/08/27 01:45:26;;;;;;;7.97;2.20;;;;;;;12.04;75.08;100310.59;8600962;34;20537;-71
2021/08/27 01:50:32;;;;;;;3.17;2.38;;;;;;;11.78;75.75;100310.19;8600728;34;21685;-71
2021/08/27 01:55:35;;;;;;;6.07;2.30;;;;;;;11.97;75.65;100303.19;8600507;34;20182;-71
2021/08/27 02:00:38;;;;;;;5.10;2.40;;;;;;;11.95;76.05;100306.00;8600052;34;20487;-71
2021/08/27 02:05:44;;;;;;;6.40;1.90;;;;;;;12.04;75.40;100304.34;8600101;34;20238;-71
2021/08/27 02:10:48;;;;;;;8.00;2.20;;;;;;;12.01;75.41;100307.28;8600532;34;20193;-71
2021/08/27 02:15:52;;;;;;;7.55;2.03;;;;;;;12.02;75.47;100300.94;8599835;34;20220;-71
2021/08/27 02:20:57;;;;;;;4.93;2.08;;;;;;;11.64;77.12;100303.31;8600304;34;20141;-71
2021/08/27 02:26:03;;;;;;;4.65;1.98;;;;;;;11.82;76.41;100300.88;8600034;34;20192;-71
2021/08/27 02:31:06;;;;;;;4.78;2.28;;;;;;;11.90;76.16;100306.44;8601547;34;20199;-72
2021/08/27 02:36:14;;;;;;;4.90;2.03;;;;;;;11.93;76.45;100302.63;8600480;34;20216;-72
2021/08/27 02:41:17;;;;;;;5.80;2.28;;;;;;;11.93;76.07;100316.06;8600634;34;21720;-72
2021/08/27 02:46:20;;;;;;;4.72;2.00;;;;;;;11.92;76.43;100311.66;8599664;34;20266;-71
2021/08/27 02:51:34;;;;;;;5.55;1.88;;;;;;;11.87;76.28;100303.97;8599902;34;20140;-71
2021/08/27 02:56:43;;;;;;;6.72;2.17;;;;;;;11.86;76.40;100312.19;8599556;34;20242;-70
2021/08/27 03:01:51;;;;;;;5.80;2.05;;;;;;;11.95;76.32;100308.69;8604562;34;20647;-71
2021/08/27 03:07:05;;;;;;;5.68;2.30;;;;;;;11.92;76.03;100311.66;8604532;34;20260;-71
2021/08/27 03:12:12;;;;;;;4.40;2.05;;;;;;;11.69;76.97;100300.22;8604772;34;20632;-71
2021/08/27 03:17:19;;;;;;;4.72;2.20;;;;;;;11.47;77.52;100293.16;8603861;34;20173;-72
2021/08/27 03:22:27;;;;;;;9.13;2.40;;;;;;;11.47;77.01;100295.84;8604302;34;20191;-71
2021/08/27 03:27:35;;;;;;;8.10;1.80;;;;;;;11.71;76.81;100296.41;8603758;34;20268;-71
2021/08/27 03:32:39;;;;;;;5.90;2.17;;;;;;;11.72;76.69;100295.41;8603748;34;20196;-72
2021/08/27 03:37:43;;;;;;;4.15;2.35;;;;;;;11.58;77.38;100292.25;8603318;34;20204;-72
2021/08/27 03:42:47;;;;;;;5.78;2.03;;;;;;;11.48;77.53;100286.78;8603563;34;20459;-72
2021/08/27 03:47:52;;;;;;;6.65;2.00;;;;;;;11.62;76.70;100286.44;8603128;34;20145;-72
2021/08/27 03:52:57;;;;;;;4.63;2.40;;;;;;;11.39;77.86;100284.91;8603934;34;20250;-72
2021/08/27 03:58:01;;;;;;;2.72;1.85;;;;;;;11.60;77.38;100292.94;8579284;34;20418;-72
2021/08/27 04:03:13;;;;;;;4.97;2.55;;;;;;;11.77;76.95;100296.88;8603682;34;20193;-71
2021/08/27 04:08:18;;;;;;;2.72;1.70;;;;;;;11.77;77.17;100294.19;8603122;34;20177;-72
2021/08/27 04:13:21;;;;;;;2.92;1.63;;;;;;;11.76;77.15;100289.75;8602856;34;20239;-72
2021/08/27 04:18:24;;;;;;;4.63;1.77;;;;;;;11.59;77.78;100302.84;8602120;34;20254;-70
2021/08/27 04:23:28;;;;;;;6.88;1.75;;;;;;;11.43;78.82;100287.19;8602610;34;20315;-72
2021/08/27 04:28:32;;;;;;;4.38;1.92;;;;;;;11.53;78.59;100291.78;8603896;34;20191;-72
2021/08/27 04:33:35;;;;;;;5.10;1.92;;;;;;;11.75;78.01;100290.75;8603028;34;20189;-72
2021/08/27 04:38:39;;;;;;;4.13;2.15;;;;;;;11.69;78.12;100297.53;8603103;34;20254;-72
2021/08/27 04:43:42;;;;;;;4.72;2.47;;;;;;;11.51;78.74;100297.28;8604861;34;20235;-72
2021/08/27 04:48:45;;;;;;;2.85;2.20;;;;;;;11.60;78.68;100299.19;8606160;34;20193;-72
2021/08/27 04:53:49;;;;;;;4.25;2.80;;;;;;;11.50;80.06;100295.59;8602616;34;20273;-70
2021/08/27 04:58:53;;;;;;;4.35;3.00;;;;;;;11.66;79.60;100289.75;8602473;34;20339;-72
2021/08/27 05:03:56;;;;;;;6.32;2.95;;;;;;;11.68;79.41;100303.88;8603029;34;22562;-72
2021/08/27 05:09:00;;;;;;;6.60;3.28;;;;;;;11.62;79.70;100297.19;8602527;34;20686;-72
2021/08/27 05:14:03;;;;;;;4.88;2.63;;;;;;;11.88;79.63;100300.31;8604390;34;20183;-72
2021/08/27 05:19:06;;;;;;;6.25;2.83;;;;;;;11.46;81.90;100302.19;8602459;34;20634;-71
2021/08/27 05:24:11;;;;;;;6.05;2.78;;;;;;;11.68;81.11;100303.88;8602085;34;20145;-71
2021/08/27 05:29:14;;;;;;;4.35;2.35;;;;;;;11.68;81.59;100302.06;8601843;34;21597;-71
2021/08/27 05:34:19;;;;;;;7.07;2.95;;;;;;;11.72;81.51;100302.66;8601701;34;20666;-71
2021/08/27 05:39:27;;;;;;;3.47;2.78;;;;;;;11.75;81.31;100305.06;8601412;34;20146;-71
2021/08/27 05:44:30;;;;;;;4.82;2.60;;;;;;;12.16;80.05;100308.66;8601230;34;20258;-71
2021/08/27 05:49:34;;;;;;;8.18;3.20;;;;;;;12.23;79.29;100311.63;8601139;34;20197;-70
2021/08/27 05:54:39;;;;;;;4.82;2.83;;;;;;;12.34;78.67;100308.84;8600811;34;20181;-71
2021/08/27 05:59:42;;;;;;;6.25;2.83;;;;;;;12.33;78.53;100318.78;8600933;34;20247;-71
2021/08/27 06:04:45;;;;;;;4.57;2.90;;;;;;;12.72;77.24;100315.31;8601226;34;20766;-71
2021/08/27 06:09:50;;;;;;;4.35;2.65;;;;;;;12.92;76.24;100314.34;8601311;34;20204;-71
2021/08/27 06:14:53;;;;;;;4.85;2.60;;;;;;;12.71;76.54;100309.09;8600879;34;21666;-71
2021/08/27 06:19:56;;;;;;;5.53;2.92;;;;;;;12.75;76.35;100317.72;8601092;34;20142;-71
2021/08/27 06:25:00;;;;;;;6.30;2.42;;;;;;;12.93;75.64;100307.97;8600550;34;20231;-71
2021/08/27 06:30:05;;;;;;;4.85;2.60;;;;;;;12.85;75.79;100310.50;8600561;34;21931;-71
2021/08/27 06:35:10;;;;;;;6.97;2.85;;;;;;;12.73;76.37;100301.72;8604136;34;20173;-70
2021/08/27 06:40:15;;;;;;;6.57;2.65;;;;;;;12.96;76.61;100304.13;8605251;34;20189;-71
2021/08/27 06:45:18;;;;;;;6.00;2.80;;;;;;;13.22;74.40;100302.56;8606187;34;20226;-71
2021/08/27 06:50:21;;;;;;;3.85;2.70;;;;;;;13.19;74.56;100304.69;8606227;34;20181;-71
2021/08/27 06:55:26;;;;;;;7.57;2.67;;;;;;;13.08;74.80;100310.22;8605921;34;20427;-71
2021/08/27 07:00:29;;;;;;;8.05;2.80;;;;;;;13.02;74.99;100307.09;8582183;34;20229;-72
2021/08/27 07:05:32;;;;;;;6.60;3.40;;;;;;;12.99;75.39;100301.16;8605200;34;20165;-72
2021/08/27 07:10:37;;;;;;;16.35;9.25;;;;;;;13.60;73.20;100314.34;8606389;34;20145;-71
2021/08/27 07:15:41;;;;;;;10.18;4.20;;;;;;;13.34;74.30;100315.91;8593414;34;20134;-71
2021/08/27 07:20:44;;;;;;;4.68;2.50;;;;;;;13.07;74.53;100316.63;8605096;34;20185;-72
2021/08/27 07:25:49;;;;;;;7.32;2.58;;;;;;;13.13;75.07;100308.81;8605154;34;20169;-72
2021/08/27 07:30:52;;;;;;;11.43;2.83;;;;;;;12.98;75.16;100304.84;8605034;34;20153;-72
2021/08/27 07:35:55;;;;;;;4.75;2.15;;;;;;;13.49;73.42;100307.25;8604420;34;20221;-72
2021/08/27 07:41:00;;;;;;;6.43;2.00;;;;;;;13.97;71.39;100304.53;8604816;34;20141;-72
2021/08/27 07:46:03;;;;;;;5.65;2.28;;;;;;;12.85;76.54;100296.19;8603549;34;20575;-71
2021/08/27 07:51:06;;;;;;;3.40;2.15;;;;;;;12.96;77.75;100299.59;8603747;34;20244;-71
2021/08/27 07:56:10;;;;;;;4.10;2.20;;;;;;;13.74;75.33;100291.41;8603442;34;20185;-71
2021/08/27 08:01:13;;;;;;;9.18;2.72;;;;;;;13.80;73.69;100292.69;8603407;34;20325;-71
2021/08/27 08:06:16;;;;;;;5.50;2.30;;;;;;;13.73;73.91;100307.75;8604243;34;20149;-71
2021/08/27 08:11:21;;;;;;;6.22;2.20;;;;;;;13.64;74.14;100290.59;8604614;34;20181;-71
2021/08/27 08:16:24;;;;;;;4.72;1.88;;;;;;;14.21;73.13;100301.31;8603541;34;20193;-71
2021/08/27 08:21:27;;;;;;;5.28;2.50;;;;;;;14.46;72.18;100299.78;8604631;34;20181;-71
2021/08/27 08:26:32;;;;;;;6.75;2.50;;;;;;;14.44;72.08;100286.41;8603488;34;20153;-71
2021/08/27 08:31:35;;;;;;;5.20;2.50;;;;;;;14.46;72.13;100297.06;8604045;34;20229;-72
2021/08/27 08:36:38;;;;;;;6.28;2.58;;;;;;;14.82;69.75;100279.03;8602844;34;20181;-72
2021/08/27 08:41:48;;;;;;;7.65;2.42;;;;;;;14.92;70.29;100281.63;8603513;34;20245;-72
2021/08/27 08:46:53;;;;;;;4.40;2.20;;;;;;;14.64;70.86;100273.59;8603371;34;20503;-69
2021/08/27 08:51:58;;;;;;;3.85;2.63;;;;;;;14.95;71.03;100273.25;8603944;34;20150;-72
2021/08/27 08:57:03;;;;;;;4.80;2.20;;;;;;;15.50;68.14;100277.59;8599592;34;20188;-71
2021/08/27 09:02:07;;;;;;;4.13;1.92;;;;;;;15.57;67.46;100276.78;8605787;34;20674;-70
2021/08/27 09:07:11;;;;;;;6.40;2.50;;;;;;;15.73;66.86;100273.31;8578811;34;20239;-70
2021/08/27 09:12:21;;;;;;;4.65;2.08;;;;;;;14.97;68.51;100282.88;8603792;34;20326;-70
2021/08/27 09:17:33;;;;;;;3.25;1.90;;;;;;;14.94;69.21;100277.78;8601660;34;20145;-71
2021/08/27 09:22:49;;;;;;;3.90;2.10;;;;;;;14.86;70.24;100280.41;8602670;34;20323;-71
2021/08/27 09:28:04;;;;;;;3.67;2.10;;;;;;;15.33;66.82;100279.28;8577539;34;20184;-72
2021/08/27 09:33:10;;;;;;;3.95;1.67;;;;;;;15.66;64.94;100283.06;8601910;34;20207;-70
2021/08/27 09:38:16;;;;;;;4.05;1.90;;;;;;;16.00;63.68;100280.41;8601727;34;20133;-72
2021/08/27 09:43:27;;;;;;;3.45;1.95;;;;;;;16.20;63.95;100282.84;8601808;34;20153;-72
2021/08/27 09:48:38;;;;;;;2.88;1.48;;;;;;;15.90;64.21;100280.50;8601653;34;20181;-71
2021/08/27 09:53:43;;;;;;;3.88;1.95;;;;;;;16.17;64.18;100275.06;8600608;34;20683;-71
2021/08/27 09:58:54;;;;;;;3.13;1.52;;;;;;;16.88;63.11;100271.84;8598745;34;20553;-71
2021/08/27 10:04:05;;;;;;;5.20;1.90;;;;;;;16.92;61.38;100265.09;8599852;34;20290;-72
2021/08/27 10:09:08;;;;;;;4.20;1.70;;;;;;;16.51;61.06;100272.28;8599911;34;20776;-72
2021/08/27 10:14:13;;;;;;;4.28;1.80;;;;;;;15.11;68.38;100270.69;8600045;34;20250;-72
2021/08/27 10:19:16;;;;;;;4.22;1.30;;;;;;;15.67;69.38;100268.53;8598727;34;21124;-72
2021/08/27 10:24:19;;;;;;;5.50;1.60;;;;;;;15.80;67.55;100270.84;8598857;34;20146;-72
2021/08/27 10:29:24;;;;;;;2.55;1.35;;;;;;;15.54;67.49;100262.72;8598268;34;20822;-72
2021/08/27 10:34:41;;;;;;;3.15;1.40;;;;;;;15.58;68.25;100267.66;8597717;34;20363;-70
2021/08/27 10:39:48;;;;;;;2.92;1.60;;;;;;;16.97;64.46;100265.41;8599891;34;20206;-71
2021/08/27 10:44:53;;;;;;;2.97;2.05;;;;;;;17.35;62.28;100262.22;8601004;34;20145;-71
2021/08/27 10:49:58;;;;;;;5.32;1.80;;;;;;;17.63;61.52;100249.94;8600691;34;20751;-72
2021/08/27 10:55:17;;;;;;;3.42;1.70;;;;;;;18.65;58.50;100255.47;8600402;34;20153;-72
2021/08/27 11:00:40;;;;;;;4.38;1.98;;;;;;;16.58;68.27;100260.63;8599975;34;20227;-71
2021/08/27 11:05:46;;;;;;;2.75;2.05;;;;;;;14.51;78.13;100271.28;8599520;34;20196;-72
2021/08/27 11:11:22;;;;;;;5.35;2.80;;;;;;;13.73;83.95;100284.31;8601041;34;20220;-72
2021/08/27 11:16:27;;;;;;;0.30;0.30;;;;;;;13.45;86.59;100281.53;8434626;34;20244;-72
2021/08/27 11:21:35;;;;;;;1.05;0.95;;;;;;;13.73;88.52;100272.66;8604710;34;20495;-72
2021/08/27 11:26:41;;;;;;;4.35;1.45;;;;;;;13.92;88.64;100270.72;8606175;34;20203;-72
2021/08/27 11:31:51;;;;;;;0.30;0.30;;;;;;;13.78;87.87;100282.00;8605843;34;20146;-73
2021/08/27 11:36:55;;;;;;;0.20;0.20;;;;;;;13.61;87.98;100280.09;8605523;34;20169;-72
2021/08/27 11:41:58;;;;;;;1.10;0.45;;;;;;;13.66;88.25;100280.50;8604689;34;20251;-72
2021/08/27 11:47:04;;;;;;;0.20;0.20;;;;;;;13.54;88.98;100273.56;8604301;34;20527;-73
2021/08/27 11:52:14;;;;;;;0.50;0.50;;;;;;;13.47;88.23;100268.75;8606074;34;20545;-73
2021/08/27 11:57:21;;;;;;;0.20;0.20;;;;;;;14.54;94.00;100275.53;8604962;34;20153;-73
2021/08/27 12:02:25;;;;;;;0.55;0.35;;;;;;;15.70;90.28;100271.78;8605193;34;20138;-72
2021/08/27 12:07:30;;;;;;;0.20;0.20;;;;;;;16.45;92.09;100273.81;8604492;34;20227;-72
2021/08/27 12:12:36;;;;;;;0.20;0.20;;;;;;;18.43;84.02;100264.41;8605060;34;20756;-71
2021/08/27 12:17:51;;;;;;;0.20;0.20;;;;;;;18.62;82.50;100261.22;8602522;34;20193;-71
2021/08/27 12:23:00;;;;;;;0.35;0.35;;;;;;;20.49;79.49;100254.13;8599318;34;20185;-72
2021/08/27 12:28:04;;;;;;;0.30;0.30;;;;;;;20.50;73.13;100261.28;8602156;34;20456;-71
2021/08/27 12:33:08;;;;;;;0.50;0.50;;;;;;;20.87;72.46;100249.28;8602409;34;20730;-71
2021/08/27 12:38:15;;;;;;;0.75;0.75;;;;;;;20.80;68.95;100262.03;8602089;34;20189;-72
2021/08/27 12:43:24;;;;;;;0.30;0.30;;;;;;;19.95;67.44;100252.59;8602562;34;20211;-73
2021/08/27 12:48:30;;;;;;;0.20;0.20;;;;;;;17.85;70.47;100266.50;8601768;34;20736;-72
2021/08/27 12:53:36;;;;;;;0.30;0.30;;;;;;;16.58;74.05;100276.91;8600999;34;20187;-72
2021/08/27 12:58:40;;;;;;;0.20;0.20;;;;;;;15.34;81.26;100276.44;8599040;34;20224;-72
2021/08/27 13:03:50;;;;;;;0.35;0.35;;;;;;;15.51;86.44;100272.00;8600213;34;20236;-72
2021/08/27 13:08:58;;;;;;;0.43;0.43;;;;;;;17.83;81.21;100277.56;8599953;34;20196;-72
2021/08/27 13:14:17;;;;;;;0.30;0.30;;;;;;;16.99;74.64;100273.41;8601933;34;20323;-73
2021/08/27 13:19:21;;;;;;;0.32;0.32;;;;;;;17.35;76.89;100276.63;8600169;34;20255;-73
2021/08/27 13:24:35;;;;;;;0.38;0.38;;;;;;;16.20;78.11;100288.28;8600443;34;20595;-73
2021/08/27 13:29:38;;;;;;;0.30;0.30;;;;;;;14.88;85.48;100283.81;8600179;34;20716;-72
2021/08/27 13:34:42;;;;;;;0.20;0.20;;;;;;;14.55;88.50;100293.44;8598841;34;20196;-73
2021/08/27 13:39:47;;;;;;;0.52;0.52;;;;;;;14.44;89.30;100283.69;8599785;34;20232;-73
2021/08/27 13:44:50;;;;;;;1.17;1.15;;;;;;;14.03;89.18;100288.59;8599308;34;20716;-73
2021/08/27 13:49:55;;;;;;;0.30;0.30;;;;;;;13.65;89.50;100282.31;8600822;34;20562;-73
2021/08/27 13:54:57;;;;;;;3.10;1.85;;;;;;;13.82;90.32;100286.13;8576282;34;20197;-73
2021/08/27 14:00:01;;;;;;;0.47;0.47;;;;;;;13.65;89.13;100293.13;8600332;34;20199;-72
2021/08/27 14:05:11;;;;;;;0.30;0.30;;;;;;;13.72;89.25;100288.00;8601038;34;20272;-73
2021/08/27 14:10:15;;;;;;;3.00;0.47;;;;;;;13.81;90.14;100281.72;8600556;34;20641;-73
2021/08/27 14:15:18;;;;;;;0.40;0.40;;;;;;;14.14;90.66;100282.97;8600248;34;20189;-73
2021/08/27 14:20:22;;;;;;;0.30;0.30;;;;;;;14.45;90.73;100289.97;8600529;34;20276;-73
2021/08/27 14:25:25;;;;;;;0.20;0.20;;;;;;;14.89;90.69;100277.41;8600215;34;20523;-73
2021/08/27 14:30:28;;;;;;;0.25;0.25;;;;;;;16.30;87.92;100283.59;8600551;34;20446;-73
2021/08/27 14:35:33;;;;;;;5.25;0.73;;;;;;;16.98;85.49;100285.28;8600655;34;20150;-72
2021/08/27 14:40:38;;;;;;;0.32;0.32;;;;;;;17.36;78.57;100294.63;8599805;34;21976;-71
2021/08/27 14:45:41;;;;;;;0.20;0.20;;;;;;;16.46;83.95;100289.09;8599456;34;20533;-71
2021/08/27 14:50:45;;;;;;;0.30;0.30;;;;;;;15.92;85.25;100293.91;8600049;34;20902;-71
2021/08/27 14:55:49;;;;;;;0.55;0.55;;;;;;;14.65;90.02;100288.00;8603060;34;20165;-71
2021/08/27 15:00:52;;;;;;;0.20;0.20;;;;;;;14.34;89.92;100281.03;8605020;34;20216;-71
2021/08/27 15:05:56;;;;;;;0.40;0.40;;;;;;;15.34;93.22;100275.56;8604794;34;20225;-73
2021/08/27 15:10:59;;;;;;;0.38;0.38;;;;;;;16.37;90.76;100284.63;8580620;34;20205;-72
2021/08/27 15:16:04;;;;;;;0.25;0.25;;;;;;;17.59;89.62;100278.47;8603695;34;20967;-72
2021/08/27 15:21:09;;;;;;;0.30;0.30;;;;;;;17.93;84.73;100286.34;8603032;34;20232;-72
2021/08/27 15:26:14;;;;;;;0.30;0.30;;;;;;;17.04;85.21;100288.16;8599799;34;20689;-72
2021/08/27 15:31:17;;;;;;;0.20;0.20;;;;;;;16.53;85.39;100281.97;8603451;34;20230;-72
2021/08/27 15:36:22;;;;;;;0.50;0.50;;;;;;;16.72;86.66;100296.25;8604216;34;20720;-71
2021/08/27 15:41:25;;;;;;;1.67;1.52;;;;;;;16.21;86.36;100304.38;8604921;34;20188;-71
2021/08/27 15:46:28;;;;;;;0.43;0.40;;;;;;;15.85;86.54;100300.97;8604355;34;20638;-73
2021/08/27 15:51:32;;;;;;;0.10;0.10;;;;;;;14.94;86.37;100303.97;8604340;34;20239;-73
2021/08/27 15:56:35;;;;;;;1.00;0.90;;;;;;;14.45;87.98;100316.97;8603781;34;20646;-73
2021/08/27 16:01:38;;;;;;;0.65;0.65;;;;;;;14.27;88.06;100319.63;8605410;34;20185;-72
2021/08/27 16:06:43;;;;;;;0.30;0.30;;;;;;;14.14;88.73;100331.59;8603469;34;20204;-75
2021/08/27 16:11:46;;;;;;;1.23;0.75;;;;;;;13.98;89.35;100342.19;8604063;34;20475;-72
2021/08/27 16:16:49;;;;;;;0.30;0.30;;;;;;;14.13;89.72;100331.78;8603197;34;20259;-72
2021/08/27 16:21:54;;;;;;;0.40;0.40;;;;;;;14.33;89.37;100338.78;8579624;34;20208;-72
2021/08/27 16:26:57;;;;;;;0.50;0.50;;;;;;;14.32;89.04;100333.53;8603227;34;20223;-72
2021/08/27 16:32:00;;;;;;;0.30;0.30;;;;;;;14.35;89.24;100334.06;8603791;34;20877;-72
2021/08/27 16:37:05;;;;;;;0.73;0.68;;;;;;;14.41;88.99;100337.22;8602778;34;20150;-73
2021/08/27 16:42:08;;;;;;;0.22;0.22;;;;;;;14.40;89.65;100354.41;8603463;34;20501;-72
2021/08/27 16:47:11;;;;;;;0.52;0.52;;;;;;;14.19;88.73;100360.88;8602583;34;20936;-72
2021/08/27 16:52:16;;;;;;;0.20;0.20;;;;;;;14.19;89.40;100358.19;8602581;34;20789;-72
2021/08/27 16:57:19;;;;;;;0.45;0.45;;;;;;;14.24;89.80;100363.16;8601670;34;20264;-73
2021/08/27 17:02:22;;;;;;;0.22;0.22;;;;;;;14.44;90.34;100358.53;8602785;34;20275;-73
2021/08/27 17:07:26;;;;;;;0.30;0.30;;;;;;;14.33;89.43;100371.19;8602389;34;20204;-73
2021/08/27 17:12:29;;;;;;;0.70;0.70;;;;;;;13.94;89.43;100374.03;8602464;34;20428;-72
2021/08/27 17:17:32;;;;;;;0.30;0.30;;;;;;;13.83;89.57;100378.78;8601254;34;20417;-72
2021/08/27 17:22:37;;;;;;;0.38;0.38;;;;;;;13.84;89.87;100377.75;8603006;34;20536;-73
2021/08/27 17:27:40;;;;;;;0.75;0.75;;;;;;;13.82;90.09;100382.44;8577527;34;20180;-72
2021/08/27 17:32:43;;;;;;;0.52;0.52;;;;;;;13.74;89.70;100379.63;8602340;34;20197;-72
2021/08/27 17:37:50;;;;;;;2.88;1.33;;;;;;;13.66;89.63;100380.38;8601854;34;20911;-71
2021/08/27 17:42:54;;;;;;;0.45;0.45;;;;;;;13.47;89.20;100384.78;8601835;34;20193;-73
2021/08/27 17:47:57;;;;;;;0.20;0.20;;;;;;;13.35;89.85;100379.63;8601416;34;20220;-71
2021/08/27 17:53:01;;;;;;;0.20;0.20;;;;;;;13.29;89.73;100391.84;8601874;34;20239;-71
2021/08/27 17:58:04;;;;;;;0.40;0.40;;;;;;;13.24;89.60;100403.06;8601426;34;20704;-72
2021/08/27 18:03:08;;;;;;;0.30;0.30;;;;;;;13.14;89.65;100399.53;8601700;34;20175;-72
2021/08/27 18:08:12;;;;;;;0.50;0.50;;;;;;;13.09;90.00;100406.34;8601933;34;20469;-72
2021/08/27 18:13:15;;;;;;;0.60;0.60;;;;;;;13.04;90.06;100410.28;8601766;34;20262;-72
2021/08/27 18:18:18;;;;;;;0.30;0.30;;;;;;;13.06;90.12;100407.47;8601131;34;20871;-72
2021/08/27 18:23:23;;;;;;;0.40;0.40;;;;;;;13.05;90.09;100417.41;8602013;34;20164;-72
2021/08/27 18:28:26;;;;;;;0.63;0.63;;;;;;;13.02;89.73;100417.66;8602505;34;20165;-72
2021/08/27 18:33:29;;;;;;;0.20;0.20;;;;;;;12.96;90.07;100431.69;8601630;34;20196;-71
2021/08/27 18:38:34;;;;;;;0.73;0.73;;;;;;;12.87;89.74;100447.88;8601120;34;20914;-71
2021/08/27 18:43:37;;;;;;;0.57;0.52;;;;;;;12.78;89.49;100455.78;8601329;34;20189;-72
2021/08/27 18:48:40;;;;;;;1.02;0.80;;;;;;;12.64;89.42;100461.53;8599568;34;20182;-72
2021/08/27 18:53:44;;;;;;;1.48;1.25;;;;;;;12.56;89.78;100472.13;8601115;34;20196;-72
2021/08/27 18:58:48;;;;;;;0.28;0.28;;;;;;;12.39;89.61;100476.31;8576871;34;20216;-72
2021/08/27 19:03:54;;;;;;;0.30;0.30;;;;;;;12.32;89.69;100489.47;8600949;34;20262;-71
2021/08/27 19:08:59;;;;;;;0.63;0.63;;;;;;;12.24;89.52;100491.09;8599663;34;20189;-72
2021/08/27 19:14:02;;;;;;;1.15;1.00;;;;;;;12.22;89.67;100493.06;8596157;34;20266;-72
2021/08/27 19:19:05;;;;;;;0.50;0.50;;;;;;;12.22;89.67;100502.00;8594458;34;20185;-72
2021/08/27 19:24:09;;;;;;;0.22;0.22;;;;;;;12.17;89.33;100499.69;8555279;34;20251;-72
2021/08/27 19:29:12;;;;;;;0.20;0.20;;;;;;;12.11;89.67;100511.00;8599796;34;21022;-72
2021/08/27 19:34:15;;;;;;;0.35;0.35;;;;;;;12.05;89.59;100518.75;8598657;34;20692;-72
2021/08/27 19:39:19;;;;;;;0.20;0.20;;;;;;;11.95;88.96;100530.28;8600440;34;20184;-72
2021/08/27 19:44:24;;;;;;;0.30;0.30;;;;;;;11.76;89.12;100538.19;8604057;34;20251;-72
2021/08/27 19:49:27;;;;;;;0.40;0.40;;;;;;;11.79;89.47;100550.53;8602848;34;20669;-72
2021/08/27 19:54:31;;;;;;;0.30;0.30;;;;;;;11.81;89.36;100554.81;8603362;34;20354;-72
2021/08/27 19:59:35;;;;;;;0.28;0.28;;;;;;;11.58;88.76;100556.75;8604249;34;20149;-73
2021/08/27 20:04:38;;;;;;;0.30;0.30;;;;;;;11.54;89.39;100563.34;8605898;34;20199;-73
2021/08/27 20:09:42;;;;;;;0.60;0.57;;;;;;;11.50;88.73;100537.69;8605839;34;20181;-72
2021/08/27 20:14:45;;;;;;;0.28;0.28;;;;;;;11.35;89.16;100561.31;8604663;34;21054;-72
2021/08/27 20:19:48;;;;;;;0.35;0.35;;;;;;;11.08;88.77;100558.13;8603414;34;20445;-72
2021/08/27 20:24:52;;;;;;;0.73;0.73;;;;;;;11.02;89.63;100559.47;8603974;34;20499;-72
2021/08/27 20:29:55;;;;;;;0.65;0.65;;;;;;;11.17;89.63;100569.03;8604268;34;20160;-72
2021/08/27 20:34:58;;;;;;;0.50;0.50;;;;;;;11.20;89.27;100574.16;8603860;34;20154;-72
2021/08/27 20:40:04;;;;;;;0.88;0.88;;;;;;;11.22;89.13;100564.16;8603533;34;20189;-73
2021/08/27 20:45:11;;;;;;;0.30;0.30;;;;;;;11.20;89.28;100571.47;8603094;34;20249;-72
2021/08/27 20:50:14;;;;;;;0.43;0.43;;;;;;;11.21;89.35;100575.88;8602650;34;20185;-72
2021/08/27 20:55:18;;;;;;;0.63;0.57;;;;;;;11.31;89.23;100569.75;8602317;34;20189;-73
2021/08/27 21:00:22;;;;;;;1.08;1.08;;;;;;;11.30;89.18;100562.66;8602500;34;20184;-73
2021/08/27 21:05:25;;;;;;;0.32;0.32;;;;;;;11.33;89.16;100559.75;8603732;34;20277;-72
2021/08/27 21:10:29;;;;;;;0.60;0.60;;;;;;;11.33;88.81;100579.41;8603466;34;20189;-72
2021/08/27 21:15:32;;;;;;;0.43;0.43;;;;;;;11.16;88.75;100574.53;8602463;34;20130;-71
2021/08/27 21:20:35;;;;;;;0.40;0.40;;;;;;;11.05;88.93;100578.03;8598947;34;20173;-72
2021/08/27 21:25:40;;;;;;;0.93;0.93;;;;;;;10.87;88.87;100568.78;8597026;34;20314;-72
2021/08/27 21:30:43;;;;;;;0.98;0.55;;;;;;;10.88;89.03;100578.53;8598201;34;20571;-72
2021/08/27 21:35:46;;;;;;;0.20;0.20;;;;;;;10.97;89.03;100577.81;8595109;34;20891;-72
2021/08/27 21:40:50;;;;;;;0.65;0.65;;;;;;;11.01;88.95;100582.81;8595871;34;20243;-73
2021/08/27 21:45:53;;;;;;;0.57;0.57;;;;;;;10.84;88.79;100584.16;8601235;34;20238;-72
2021/08/27 21:50:56;;;;;;;0.38;0.38;;;;;;;10.94;89.51;100592.38;8600754;34;20459;-72
2021/08/27 21:56:00;;;;;;;0.63;0.63;;;;;;;11.11;89.19;100592.81;8600596;34;21127;-72
2021/08/27 22:01:03;;;;;;;0.50;0.50;;;;;;;11.10;88.99;100596.50;8599842;34;20219;-72
2021/08/27 22:06:07;;;;;;;0.30;0.30;;;;;;;11.13;89.02;100596.28;8599258;34;20188;-72
2021/08/27 22:11:11;;;;;;;0.65;0.65;;;;;;;11.11;88.71;100600.88;8599643;34;20189;-71
2021/08/27 22:16:15;;;;;;;0.50;0.50;;;;;;;11.09;88.99;100594.81;8598903;34;20215;-72
2021/08/27 22:21:18;;;;;;;0.40;0.40;;;;;;;10.98;89.07;100601.03;8599357;34;20188;-72
2021/08/27 22:26:22;;;;;;;0.55;0.55;;;;;;;10.94;88.86;100603.13;8599093;34;20196;-72
2021/08/27 22:31:25;;;;;;;2.85;1.02;;;;;;;10.86;89.26;100610.06;8575689;34;21034;-72
2021/08/27 22:36:28;;;;;;;0.85;0.85;;;;;;;10.98;89.15;100614.47;8598891;34;20134;-72
2021/08/27 22:41:33;;;;;;;0.57;0.57;;;;;;;11.12;88.84;100602.63;8598742;34;20137;-71
2021/08/27 22:46:36;;;;;;;0.95;0.85;;;;;;;11.09;88.89;100613.63;8598489;34;20216;-72
2021/08/27 22:51:39;;;;;;;0.60;0.60;;;;;;;11.09;88.67;100603.72;8599663;34;20871;-72
2021/08/27 22:56:43;;;;;;;0.95;0.95;;;;;;;11.17;88.88;100608.53;8598855;34;20188;-72
2021/08/27 23:01:46;;;;;;;0.38;0.38;;;;;;;11.22;88.73;100604.50;8575209;34;20662;-72
2021/08/27 23:06:49;;;;;;;0.88;0.77;;;;;;;11.20;88.63;100609.13;8599620;34;20212;-72
2021/08/27 23:11:54;;;;;;;0.30;0.30;;;;;;;11.11;88.58;100604.47;8599513;34;20186;-73
2021/08/27 23:16:57;;;;;;;0.60;0.60;;;;;;;11.13;88.83;100599.81;8603537;34;20184;-73
2021/08/27 23:22:00;;;;;;;0.65;0.65;;;;;;;11.07;88.65;100602.97;8606018;34;20314;-73
2021/08/27 23:27:05;;;;;;;0.35;0.35;;;;;;;11.06;88.67;100604.81;8605700;34;20243;-73
2021/08/27 23:32:08;;;;;;;1.58;1.48;;;;;;;11.22;88.67;100606.31;8605546;34;20763;-72
2021/08/27 23:37:11;;;;;;;0.90;0.90;;;;;;;11.31;88.63;100612.78;8603117;34;20195;-72